Time;durP1;ratioP1;P1;durP2;ratioP2;P2;SDS_P1;SDS_P2;PMS_P1;PMS_P2;Temp;Humidity;BMP_temperature;BMP_pressure;BME280_temperature;BME280_humidity;BME280_pressure;Samples;Min_cycle;Max_cycle;Signal;HPM_P1;HPM_P2
2023/07/07 00:01:09;;;;;;;19.92;14.30;;;;;;;;;;5084645;28;20676;-67
2023/07/07 00:03:35;;;;;;;17.92;14.60;;;;;;;;;;5073900;28;20188;-67
2023/07/07 00:06:01;;;;;;;16.48;13.35;;;;;;;;;;5079957;28;20203;-67
2023/07/07 00:08:27;;;;;;;20.10;14.43;;;;;;;;;;5071910;28;20227;-67
2023/07/07 00:10:53;;;;;;;21.42;15.18;;;;;;;;;;5075992;28;20216;-67
2023/07/07 00:13:20;;;;;;;21.20;15.60;;;;;;;;;;5079623;28;20219;-67
2023/07/07 00:15:45;;;;;;;24.55;16.33;;;;;;;;;;5080517;28;20188;-67
2023/07/07 00:18:13;;;;;;;20.33;15.70;;;;;;;;;;5075587;28;20211;-67
2023/07/07 00:20:38;;;;;;;20.15;15.65;;;;;;;;;;5084923;28;20200;-67
2023/07/07 00:23:03;;;;;;;23.52;16.38;;;;;;;;;;5078374;28;20523;-68
2023/07/07 00:25:29;;;;;;;19.55;15.25;;;;;;;;;;5082174;28;20595;-67
2023/07/07 00:27:54;;;;;;;18.38;15.68;;;;;;;;;;5084960;28;20253;-67
2023/07/07 00:30:20;;;;;;;19.45;14.98;;;;;;;;;;5075198;28;20192;-67
2023/07/07 00:32:45;;;;;;;21.75;15.57;;;;;;;;;;5087001;28;20192;-67
2023/07/07 00:35:10;;;;;;;21.65;16.48;;;;;;;;;;5075799;28;20307;-67
2023/07/07 00:37:36;;;;;;;20.67;17.13;;;;;;;;;;5071126;28;20711;-66
2023/07/07 00:40:03;;;;;;;21.33;17.33;;;;;;;;;;5072365;28;20221;-67
2023/07/07 00:42:28;;;;;;;19.35;16.48;;;;;;;;;;5070847;28;20219;-67
2023/07/07 00:45:12;;;;;;;21.45;16.08;;;;;;;;;;5072297;28;20192;-67
2023/07/07 00:47:47;;;;;;;20.70;15.82;;;;;;;;;;5076434;28;20188;-67
2023/07/07 00:50:15;;;;;;;22.17;16.55;;;;;;;;;;5081568;28;20292;-67
2023/07/07 00:52:43;;;;;;;20.70;16.15;;;;;;;;;;5083178;28;20797;-67
2023/07/07 00:55:13;;;;;;;21.30;16.45;;;;;;;;;;5086627;28;20253;-67
2023/07/07 00:57:39;;;;;;;23.45;17.63;;;;;;;;;;5086391;28;20279;-66
2023/07/07 01:00:06;;;;;;;24.70;18.27;;;;;;;;;;5086118;28;20192;-67
2023/07/07 01:02:31;;;;;;;23.40;18.10;;;;;;;;;;5081360;28;21108;-67
2023/07/07 01:05:01;;;;;;;23.77;19.33;;;;;;;;;;5081867;28;20210;-68
2023/07/07 01:07:39;;;;;;;22.83;18.58;;;;;;;;;;5075677;28;20564;-67
2023/07/07 01:10:05;;;;;;;23.27;17.98;;;;;;;;;;5078502;28;20290;-68
2023/07/07 01:12:31;;;;;;;23.30;19.08;;;;;;;;;;5085221;28;20287;-67
2023/07/07 01:14:57;;;;;;;25.20;18.08;;;;;;;;;;5074715;28;20257;-68
2023/07/07 01:17:34;;;;;;;24.88;19.38;;;;;;;;;;5082399;28;20267;-67
2023/07/07 01:20:09;;;;;;;21.23;17.75;;;;;;;;;;5074681;28;20192;-67
2023/07/07 01:23:12;;;;;;;20.95;17.52;;;;;;;;;;5085345;28;20199;-67
2023/07/07 01:25:59;;;;;;;23.38;17.63;;;;;;;;;;5081855;28;20195;-68
2023/07/07 01:28:36;;;;;;;25.38;18.15;;;;;;;;;;5067374;28;20185;-68
2023/07/07 01:31:13;;;;;;;23.52;16.67;;;;;;;;;;5070864;28;20195;-67
2023/07/07 01:33:40;;;;;;;21.52;16.45;;;;;;;;;;5082754;28;20687;-67
2023/07/07 01:36:06;;;;;;;22.20;16.77;;;;;;;;;;5083931;28;20192;-67
2023/07/07 01:38:34;;;;;;;23.33;16.98;;;;;;;;;;5090492;28;20205;-68
2023/07/07 01:41:27;;;;;;;23.25;17.02;;;;;;;;;;5085977;28;20192;-67
2023/07/07 01:44:23;;;;;;;19.80;15.70;;;;;;;;;;5081485;28;20195;-67
2023/07/07 01:47:06;;;;;;;19.23;15.88;;;;;;;;;;5087831;28;20676;-68
2023/07/07 01:49:41;;;;;;;18.20;15.45;;;;;;;;;;5080317;28;20310;-67
2023/07/07 01:52:20;;;;;;;18.35;15.73;;;;;;;;;;5083402;28;20697;-67
2023/07/07 01:54:52;;;;;;;23.80;16.02;;;;;;;;;;5082048;28;20212;-67
2023/07/07 01:57:20;;;;;;;21.25;16.08;;;;;;;;;;5085632;28;20353;-67
2023/07/07 01:59:46;;;;;;;22.65;17.00;;;;;;;;;;5075401;28;20189;-67
2023/07/07 02:02:13;;;;;;;22.27;16.95;;;;;;;;;;5079969;28;20242;-67
2023/07/07 02:04:38;;;;;;;25.63;17.23;;;;;;;;;;5076839;28;20181;-67
2023/07/07 02:07:04;;;;;;;21.98;16.73;;;;;;;;;;5076083;28;20207;-67
2023/07/07 02:09:29;;;;;;;21.75;17.55;;;;;;;;;;5076209;28;20192;-67
2023/07/07 02:11:55;;;;;;;20.20;16.80;;;;;;;;;;5083076;28;20188;-67
2023/07/07 02:14:20;;;;;;;21.38;17.27;;;;;;;;;;5078284;28;20208;-67
2023/07/07 02:16:45;;;;;;;20.95;16.98;;;;;;;;;;5085551;28;20558;-67
2023/07/07 02:19:12;;;;;;;23.88;18.35;;;;;;;;;;5077680;28;20274;-67
2023/07/07 02:21:37;;;;;;;24.75;18.00;;;;;;;;;;5084040;28;20274;-67
2023/07/07 02:24:03;;;;;;;25.92;17.48;;;;;;;;;;5086245;28;20637;-67
2023/07/07 02:26:28;;;;;;;22.58;18.13;;;;;;;;;;5088580;28;20195;-67
2023/07/07 02:28:53;;;;;;;19.58;17.05;;;;;;;;;;5091044;28;20695;-67
2023/07/07 02:31:24;;;;;;;23.52;15.93;;;;;;;;;;5088729;28;20196;-67
2023/07/07 02:33:50;;;;;;;20.42;16.42;;;;;;;;;;5083636;28;20204;-67
2023/07/07 02:36:18;;;;;;;21.67;16.30;;;;;;;;;;5085365;28;20651;-67
2023/07/07 02:38:44;;;;;;;22.50;16.35;;;;;;;;;;5083981;28;20263;-67
2023/07/07 02:41:09;;;;;;;21.13;17.08;;;;;;;;;;5081791;28;20413;-68
2023/07/07 02:43:35;;;;;;;19.27;16.00;;;;;;;;;;5087881;28;20271;-67
2023/07/07 02:46:00;;;;;;;19.92;15.65;;;;;;;;;;5089262;28;20238;-67
2023/07/07 02:48:25;;;;;;;21.42;16.92;;;;;;;;;;5090111;28;20196;-68
2023/07/07 02:50:55;;;;;;;21.15;16.20;;;;;;;;;;5075415;28;20295;-68
2023/07/07 02:53:23;;;;;;;20.13;16.00;;;;;;;;;;5084089;28;20644;-66
2023/07/07 02:55:49;;;;;;;18.60;15.93;;;;;;;;;;5077980;28;20267;-67
2023/07/07 02:58:14;;;;;;;22.52;16.10;;;;;;;;;;5090129;28;20275;-67
2023/07/07 03:00:39;;;;;;;19.55;16.88;;;;;;;;;;5083475;28;20224;-67
2023/07/07 03:03:07;;;;;;;22.50;16.02;;;;;;;;;;5072628;28;20555;-68
2023/07/07 03:05:32;;;;;;;23.73;16.65;;;;;;;;;;5071989;28;20200;-67
2023/07/07 03:07:58;;;;;;;23.23;16.85;;;;;;;;;;5084164;28;20199;-68
2023/07/07 03:10:23;;;;;;;21.80;16.48;;;;;;;;;;5074753;28;20644;-67
2023/07/07 03:12:48;;;;;;;22.15;15.25;;;;;;;;;;5078694;28;20194;-68
2023/07/07 03:15:14;;;;;;;17.65;14.50;;;;;;;;;;5080376;28;20228;-67
2023/07/07 03:17:39;;;;;;;19.95;15.70;;;;;;;;;;5077714;28;20188;-68
2023/07/07 03:20:08;;;;;;;18.85;15.32;;;;;;;;;;5081483;28;20226;-67
2023/07/07 03:22:34;;;;;;;20.27;14.20;;;;;;;;;;5079985;28;20238;-67
2023/07/07 03:25:00;;;;;;;20.95;15.18;;;;;;;;;;5072794;28;20269;-68
2023/07/07 03:27:26;;;;;;;18.75;14.45;;;;;;;;;;5085889;28;20742;-67
2023/07/07 03:29:51;;;;;;;16.90;14.35;;;;;;;;;;5080226;28;20679;-67
2023/07/07 03:32:16;;;;;;;19.15;15.35;;;;;;;;;;5076260;28;20262;-67
2023/07/07 03:34:42;;;;;;;17.67;14.48;;;;;;;;;;5084785;28;20335;-67
2023/07/07 03:37:07;;;;;;;16.67;14.30;;;;;;;;;;5084795;28;20762;-67
2023/07/07 03:39:32;;;;;;;18.35;14.73;;;;;;;;;;5077852;28;20184;-68
2023/07/07 03:41:58;;;;;;;22.38;15.07;;;;;;;;;;5080769;28;20232;-66
2023/07/07 03:44:23;;;;;;;17.58;14.90;;;;;;;;;;5078853;28;20897;-67
2023/07/07 03:46:48;;;;;;;20.13;16.33;;;;;;;;;;5074562;28;20193;-67
2023/07/07 03:49:14;;;;;;;19.38;15.90;;;;;;;;;;5089230;28;20201;-66
2023/07/07 03:51:39;;;;;;;19.60;15.27;;;;;;;;;;5078347;28;20310;-66
2023/07/07 03:54:05;;;;;;;22.75;16.27;;;;;;;;;;5077167;28;20243;-66
2023/07/07 03:56:31;;;;;;;19.05;16.00;;;;;;;;;;5079940;28;20184;-66
2023/07/07 03:58:56;;;;;;;21.05;15.57;;;;;;;;;;5072310;28;20199;-67
2023/07/07 04:01:21;;;;;;;20.52;15.45;;;;;;;;;;5081790;28;20226;-67
2023/07/07 04:03:47;;;;;;;21.25;15.10;;;;;;;;;;5074065;28;20192;-67
2023/07/07 04:06:17;;;;;;;18.75;14.52;;;;;;;;;;5082973;28;20222;-68
2023/07/07 04:08:42;;;;;;;23.58;16.00;;;;;;;;;;5075173;28;20196;-67
2023/07/07 04:11:14;;;;;;;21.05;15.98;;;;;;;;;;5080061;28;20555;-67
2023/07/07 04:13:42;;;;;;;23.00;16.85;;;;;;;;;;5071808;28;20265;-68
2023/07/07 04:16:10;;;;;;;19.92;15.23;;;;;;;;;;5077192;28;20187;-66
2023/07/07 04:18:36;;;;;;;20.50;14.98;;;;;;;;;;5081971;28;20193;-66
2023/07/07 04:21:06;;;;;;;18.73;15.15;;;;;;;;;;5075983;28;20572;-66
2023/07/07 04:23:33;;;;;;;20.27;14.65;;;;;;;;;;5071314;28;20180;-66
2023/07/07 04:25:58;;;;;;;16.25;13.35;;;;;;;;;;5072816;28;20195;-66
2023/07/07 04:28:24;;;;;;;16.48;12.73;;;;;;;;;;5082369;28;20707;-68
2023/07/07 04:30:55;;;;;;;14.25;12.55;;;;;;;;;;5083377;28;20211;-67
2023/07/07 04:33:22;;;;;;;14.90;12.88;;;;;;;;;;5082606;28;20216;-67
2023/07/07 04:35:54;;;;;;;16.92;13.52;;;;;;;;;;5081906;28;20256;-67
2023/07/07 04:38:21;;;;;;;15.85;12.55;;;;;;;;;;5084152;28;20470;-68
2023/07/07 04:40:47;;;;;;;17.90;12.90;;;;;;;;;;5072381;28;20191;-68
2023/07/07 04:43:12;;;;;;;23.05;12.65;;;;;;;;;;5073649;28;20228;-68
2023/07/07 04:45:37;;;;;;;18.85;12.85;;;;;;;;;;5084379;28;20207;-68
2023/07/07 04:48:04;;;;;;;15.70;12.60;;;;;;;;;;5076440;28;20239;-68
2023/07/07 04:50:33;;;;;;;17.98;13.10;;;;;;;;;;5073746;28;20188;-68
2023/07/07 04:52:58;;;;;;;15.13;12.18;;;;;;;;;;5077128;28;20188;-68
2023/07/07 04:55:24;;;;;;;14.90;12.23;;;;;;;;;;5070617;28;20569;-68
2023/07/07 04:57:50;;;;;;;17.17;13.05;;;;;;;;;;5072903;28;20192;-68
2023/07/07 05:00:15;;;;;;;15.65;12.18;;;;;;;;;;5075187;28;20551;-68
2023/07/07 05:02:40;;;;;;;19.25;12.85;;;;;;;;;;5073445;28;20199;-68
2023/07/07 05:05:06;;;;;;;16.45;12.80;;;;;;;;;;5069106;28;20271;-68
2023/07/07 05:07:32;;;;;;;14.93;12.63;;;;;;;;;;5072265;28;20196;-68
2023/07/07 05:09:57;;;;;;;15.40;13.43;;;;;;;;;;5069409;28;20188;-68
2023/07/07 05:12:22;;;;;;;16.45;12.88;;;;;;;;;;5074766;28;20197;-68
2023/07/07 05:14:48;;;;;;;15.32;13.23;;;;;;;;;;5067151;28;20307;-68
2023/07/07 05:17:13;;;;;;;20.13;13.25;;;;;;;;;;5077154;28;20223;-68
2023/07/07 05:19:38;;;;;;;18.73;13.55;;;;;;;;;;5068713;28;20181;-68
2023/07/07 05:22:04;;;;;;;17.92;14.27;;;;;;;;;;5076721;28;20192;-68
2023/07/07 05:24:29;;;;;;;18.75;14.10;;;;;;;;;;5074508;28;20188;-68
2023/07/07 05:26:55;;;;;;;18.92;14.93;;;;;;;;;;5083200;28;20249;-67
2023/07/07 05:29:22;;;;;;;19.08;14.73;;;;;;;;;;5076894;28;20180;-68
2023/07/07 05:31:48;;;;;;;16.88;14.80;;;;;;;;;;5072337;28;20191;-68
2023/07/07 05:34:13;;;;;;;20.30;15.05;;;;;;;;;;5073546;28;20219;-67
2023/07/07 05:36:38;;;;;;;19.25;15.00;;;;;;;;;;5070262;28;20192;-68
2023/07/07 05:39:06;;;;;;;22.42;14.68;;;;;;;;;;5080231;28;20188;-68
2023/07/07 05:41:32;;;;;;;18.38;15.27;;;;;;;;;;5084068;28;20195;-68
2023/07/07 05:43:57;;;;;;;22.77;16.23;;;;;;;;;;5078351;28;20521;-68
2023/07/07 05:46:22;;;;;;;19.25;14.82;;;;;;;;;;5082367;28;20292;-68
2023/07/07 05:48:48;;;;;;;22.33;15.00;;;;;;;;;;5078021;28;20198;-68
2023/07/07 05:51:16;;;;;;;20.73;15.73;;;;;;;;;;5082396;28;20237;-68
2023/07/07 05:53:43;;;;;;;23.45;14.57;;;;;;;;;;5084693;28;20247;-68
2023/07/07 05:56:15;;;;;;;19.63;14.77;;;;;;;;;;5073409;28;21377;-68
2023/07/07 05:58:40;;;;;;;21.98;14.93;;;;;;;;;;5073865;28;20193;-68
2023/07/07 06:01:08;;;;;;;20.30;14.10;;;;;;;;;;5066045;28;20235;-68
2023/07/07 06:03:33;;;;;;;18.65;13.63;;;;;;;;;;5083489;28;20203;-68
2023/07/07 06:05:59;;;;;;;17.20;13.07;;;;;;;;;;5077773;28;20196;-68
2023/07/07 06:08:24;;;;;;;20.10;13.77;;;;;;;;;;5080155;28;20280;-68
2023/07/07 06:10:50;;;;;;;17.90;13.20;;;;;;;;;;5081184;28;20651;-68
2023/07/07 06:13:23;;;;;;;17.80;12.52;;;;;;;;;;5080918;28;20540;-68
2023/07/07 06:15:52;;;;;;;18.88;12.50;;;;;;;;;;5070061;28;20245;-68
2023/07/07 06:18:18;;;;;;;16.85;12.57;;;;;;;;;;5075783;28;20275;-68
2023/07/07 06:20:50;;;;;;;18.58;11.75;;;;;;;;;;5079704;28;20275;-68
2023/07/07 06:23:15;;;;;;;17.85;11.48;;;;;;;;;;5081283;28;20192;-68
2023/07/07 06:25:41;;;;;;;19.80;12.02;;;;;;;;;;5078916;28;20237;-67
2023/07/07 06:28:06;;;;;;;20.98;11.00;;;;;;;;;;5081175;28;20528;-68
2023/07/07 06:30:32;;;;;;;15.68;10.00;;;;;;;;;;5081947;28;20192;-68
2023/07/07 06:32:58;;;;;;;15.07;10.30;;;;;;;;;;5085100;28;20188;-68
2023/07/07 06:35:25;;;;;;;14.38;10.52;;;;;;;;;;5079663;28;20224;-69
2023/07/07 06:37:50;;;;;;;16.92;9.60;;;;;;;;;;5084722;28;20199;-69
2023/07/07 06:40:16;;;;;;;17.02;9.10;;;;;;;;;;5083179;28;20184;-68
2023/07/07 06:42:41;;;;;;;16.85;8.13;;;;;;;;;;5083141;28;20224;-67
2023/07/07 06:45:07;;;;;;;9.90;7.95;;;;;;;;;;5086896;28;20204;-68
2023/07/07 06:47:32;;;;;;;11.55;7.40;;;;;;;;;;5084888;28;20552;-68
2023/07/07 06:49:58;;;;;;;10.00;6.97;;;;;;;;;;5078590;28;20237;-68
2023/07/07 06:52:23;;;;;;;12.77;6.40;;;;;;;;;;5072363;28;20646;-68
2023/07/07 06:54:48;;;;;;;9.75;6.53;;;;;;;;;;5084973;28;20217;-67
2023/07/07 06:57:14;;;;;;;11.73;6.18;;;;;;;;;;5083233;28;20184;-68
2023/07/07 06:59:39;;;;;;;10.35;5.53;;;;;;;;;;5085380;28;20241;-67
2023/07/07 07:02:05;;;;;;;12.23;5.88;;;;;;;;;;5081045;28;20211;-68
2023/07/07 07:04:31;;;;;;;9.90;5.35;;;;;;;;;;5068704;28;20185;-68
2023/07/07 07:06:57;;;;;;;9.60;5.07;;;;;;;;;;5077547;28;20673;-68
2023/07/07 07:09:22;;;;;;;9.40;5.07;;;;;;;;;;5075754;28;20367;-68
2023/07/07 07:11:47;;;;;;;7.07;5.07;;;;;;;;;;5081175;28;20282;-68
2023/07/07 07:14:13;;;;;;;8.90;5.05;;;;;;;;;;5080202;28;20216;-67
2023/07/07 07:16:39;;;;;;;9.18;5.07;;;;;;;;;;5085441;28;20590;-68
2023/07/07 07:19:04;;;;;;;8.65;4.80;;;;;;;;;;5075521;28;20261;-68
2023/07/07 07:21:30;;;;;;;10.93;4.75;;;;;;;;;;5073578;28;20681;-69
2023/07/07 07:23:55;;;;;;;8.95;4.63;;;;;;;;;;5085851;28;20200;-68
2023/07/07 07:26:21;;;;;;;6.72;4.13;;;;;;;;;;5078932;28;20191;-68
2023/07/07 07:28:47;;;;;;;11.70;4.25;;;;;;;;;;5079946;28;20195;-68
2023/07/07 07:31:12;;;;;;;9.35;4.18;;;;;;;;;;5070281;28;20581;-70
2023/07/07 07:33:38;;;;;;;7.88;3.47;;;;;;;;;;5079177;28;20236;-68
2023/07/07 07:36:03;;;;;;;8.80;3.90;;;;;;;;;;5083370;28;20188;-68
2023/07/07 07:38:29;;;;;;;9.77;4.03;;;;;;;;;;5076936;28;20196;-68
2023/07/07 07:40:55;;;;;;;8.32;3.63;;;;;;;;;;5082105;28;20226;-68
2023/07/07 07:43:20;;;;;;;8.15;3.63;;;;;;;;;;5086510;28;20268;-68
2023/07/07 07:45:46;;;;;;;7.22;3.40;;;;;;;;;;5077832;28;20258;-67
2023/07/07 07:48:11;;;;;;;5.95;3.10;;;;;;;;;;5077001;28;20192;-68
2023/07/07 07:50:37;;;;;;;9.15;3.50;;;;;;;;;;5081088;28;20192;-68
2023/07/07 07:53:02;;;;;;;6.95;2.97;;;;;;;;;;5070330;28;20196;-67
2023/07/07 07:55:28;;;;;;;7.45;3.05;;;;;;;;;;5073730;28;20696;-68
2023/07/07 07:57:53;;;;;;;5.70;2.70;;;;;;;;;;5077083;28;21017;-68
2023/07/07 08:00:19;;;;;;;6.80;2.80;;;;;;;;;;5084786;28;20469;-67
2023/07/07 08:02:44;;;;;;;6.45;2.70;;;;;;;;;;5070140;28;20197;-68
2023/07/07 08:05:11;;;;;;;7.85;2.72;;;;;;;;;;5084037;28;20220;-69
2023/07/07 08:07:36;;;;;;;8.70;2.40;;;;;;;;;;5076594;28;20656;-68
2023/07/07 08:10:03;;;;;;;4.82;2.28;;;;;;;;;;5072505;28;20192;-68
2023/07/07 08:12:28;;;;;;;3.58;2.25;;;;;;;;;;5086581;28;20509;-69
2023/07/07 08:14:54;;;;;;;3.55;2.00;;;;;;;;;;5086136;28;20273;-68
2023/07/07 08:17:19;;;;;;;4.93;2.17;;;;;;;;;;5080222;28;20523;-67
2023/07/07 08:19:48;;;;;;;5.70;2.75;;;;;;;;;;5075331;28;20192;-67
2023/07/07 08:22:18;;;;;;;7.65;2.38;;;;;;;;;;5081897;28;20187;-68
2023/07/07 08:24:50;;;;;;;4.75;2.22;;;;;;;;;;5077536;28;20200;-68
2023/07/07 08:27:17;;;;;;;5.78;2.13;;;;;;;;;;5070548;28;20224;-68
2023/07/07 08:29:43;;;;;;;5.05;2.30;;;;;;;;;;5073512;28;20185;-68
2023/07/07 08:32:12;;;;;;;7.10;2.30;;;;;;;;;;5075219;28;20192;-68
2023/07/07 08:34:38;;;;;;;4.43;2.05;;;;;;;;;;5077480;28;20367;-69
2023/07/07 08:37:04;;;;;;;8.18;2.65;;;;;;;;;;5080671;28;20211;-67
2023/07/07 08:39:29;;;;;;;5.53;2.15;;;;;;;;;;5077745;28;20669;-68
2023/07/07 08:42:04;;;;;;;5.38;2.50;;;;;;;;;;5083182;28;20221;-68
2023/07/07 08:44:32;;;;;;;7.00;2.50;;;;;;;;;;5076697;28;20302;-69
2023/07/07 08:47:07;;;;;;;6.07;2.65;;;;;;;;;;5081163;28;20192;-68
2023/07/07 08:49:44;;;;;;;5.00;2.60;;;;;;;;;;5079876;28;20184;-67
2023/07/07 08:52:37;;;;;;;3.42;2.10;;;;;;;;;;5076792;28;20192;-68
2023/07/07 08:55:05;;;;;;;4.45;2.20;;;;;;;;;;5086176;28;20216;-68
2023/07/07 08:57:37;;;;;;;4.95;2.50;;;;;;;;;;5086296;28;20190;-68
2023/07/07 09:00:38;;;;;;;6.72;2.30;;;;;;;;;;5076508;28;20191;-69
2023/07/07 09:03:47;;;;;;;7.82;2.90;;;;;;;;;;5074185;28;20196;-68
2023/07/07 09:06:36;;;;;;;4.30;2.33;;;;;;;;;;5079689;28;20271;-67
2023/07/07 09:09:24;;;;;;;5.50;2.35;;;;;;;;;;5080931;28;20204;-67
2023/07/07 09:12:17;;;;;;;4.38;2.40;;;;;;;;;;4374504;28;10000800;-68
2023/07/07 09:14:47;;;;;;;6.28;2.67;;;;;;;;;;5074082;28;20227;-66
2023/07/07 09:17:22;;;;;;;5.47;1.90;;;;;;;;;;5073179;28;20528;-67
2023/07/07 09:19:49;;;;;;;6.20;2.30;;;;;;;;;;5072457;28;20196;-67
2023/07/07 09:22:28;;;;;;;3.38;1.80;;;;;;;;;;5080924;28;20923;-67
2023/07/07 09:25:26;;;;;;;5.15;2.10;;;;;;;;;;5075297;28;20176;-68
2023/07/07 09:28:00;;;;;;;3.85;2.17;;;;;;;;;;5073347;28;20199;-68
2023/07/07 09:30:53;;;;;;;3.40;2.20;;;;;;;;;;5076952;28;20195;-67
2023/07/07 09:33:21;;;;;;;5.85;2.75;;;;;;;;;;5067405;28;20372;-69
2023/07/07 09:36:05;;;;;;;5.35;2.42;;;;;;;;;;5074945;28;20203;-67
2023/07/07 09:38:40;;;;;;;3.83;2.38;;;;;;;;;;5080145;28;20277;-67
2023/07/07 09:41:37;;;;;;;4.95;2.50;;;;;;;;;;5085593;28;20538;-67
2023/07/07 09:44:18;;;;;;;5.22;1.95;;;;;;;;;;5084510;28;20556;-69
2023/07/07 09:46:58;;;;;;;6.45;2.22;;;;;;;;;;5075342;28;20211;-69
2023/07/07 09:49:42;;;;;;;4.45;2.42;;;;;;;;;;5067268;28;20208;-67
2023/07/07 09:52:27;;;;;;;3.60;2.10;;;;;;;;;;5071823;28;20192;-68
2023/07/07 09:54:53;;;;;;;4.78;2.30;;;;;;;;;;5058615;28;20282;-70
2023/07/07 09:57:51;;;;;;;3.33;1.95;;;;;;;;;;5074638;28;20180;-68
2023/07/07 10:00:18;;;;;;;4.15;2.15;;;;;;;;;;5079826;28;20283;-68
2023/07/07 10:02:45;;;;;;;7.75;2.15;;;;;;;;;;5073703;28;20245;-68
2023/07/07 10:05:11;;;;;;;5.53;2.30;;;;;;;;;;5085329;28;20730;-67
2023/07/07 10:07:39;;;;;;;4.95;2.20;;;;;;;;;;5077744;28;20189;-67
2023/07/07 10:10:09;;;;;;;5.00;2.13;;;;;;;;;;5082632;28;20235;-67
2023/07/07 10:12:34;;;;;;;2.50;2.00;;;;;;;;;;5082412;28;20267;-67
2023/07/07 10:14:59;;;;;;;3.33;2.20;;;;;;;;;;5070934;28;20288;-67
2023/07/07 10:17:48;;;;;;;4.05;2.33;;;;;;;;;;5081288;28;20207;-68
2023/07/07 10:20:13;;;;;;;4.28;1.90;;;;;;;;;;5088517;28;20196;-69
2023/07/07 10:22:39;;;;;;;4.32;2.50;;;;;;;;;;5082605;28;20556;-67
2023/07/07 10:25:05;;;;;;;3.97;2.30;;;;;;;;;;5083697;28;20707;-68
2023/07/07 10:27:31;;;;;;;3.25;2.38;;;;;;;;;;5086775;28;20577;-68
2023/07/07 10:30:00;;;;;;;4.53;2.40;;;;;;;;;;5078047;28;20189;-68
2023/07/07 10:32:26;;;;;;;3.38;2.30;;;;;;;;;;5086218;28;20208;-67
2023/07/07 10:34:56;;;;;;;4.43;2.30;;;;;;;;;;5086477;28;20231;-68
2023/07/07 10:37:24;;;;;;;8.48;2.80;;;;;;;;;;5081738;28;20216;-67
2023/07/07 10:39:55;;;;;;;7.68;2.55;;;;;;;;;;5081707;28;20611;-68
2023/07/07 10:42:23;;;;;;;4.63;2.47;;;;;;;;;;5080857;28;20239;-68
2023/07/07 10:44:49;;;;;;;7.40;2.65;;;;;;;;;;5071376;28;20641;-69
2023/07/07 10:47:19;;;;;;;4.80;2.30;;;;;;;;;;5078151;28;20205;-67
2023/07/07 10:49:45;;;;;;;5.95;2.67;;;;;;;;;;5071564;28;20187;-67
2023/07/07 10:52:29;;;;;;;3.63;2.13;;;;;;;;;;5084680;28;20192;-67
2023/07/07 10:55:03;;;;;;;4.22;2.22;;;;;;;;;;5073231;28;20544;-67
2023/07/07 10:57:34;;;;;;;5.20;2.67;;;;;;;;;;5070586;28;20181;-67
2023/07/07 11:00:30;;;;;;;3.40;2.25;;;;;;;;;;5081274;28;20631;-68
2023/07/07 11:03:20;;;;;;;3.72;2.42;;;;;;;;;;5082832;28;20196;-69
2023/07/07 11:05:51;;;;;;;6.38;2.40;;;;;;;;;;5085291;28;20199;-68
2023/07/07 11:08:26;;;;;;;2.75;2.20;;;;;;;;;;5083428;28;20266;-70
2023/07/07 11:11:23;;;;;;;4.35;2.45;;;;;;;;;;5071528;28;20597;-69
2023/07/07 11:14:02;;;;;;;4.00;2.22;;;;;;;;;;5072146;28;20342;-69
2023/07/07 11:16:52;;;;;;;4.28;2.20;;;;;;;;;;5074541;28;20330;-71
2023/07/07 11:19:56;;;;;;;5.75;2.40;;;;;;;;;;5069597;28;20181;-69
2023/07/07 11:22:30;;;;;;;2.42;2.08;;;;;;;;;;5073932;28;20188;-68
2023/07/07 11:25:04;;;;;;;3.95;2.47;;;;;;;;;;5075341;28;20202;-69
2023/07/07 11:27:32;;;;;;;3.17;2.33;;;;;;;;;;5081818;28;20238;-69
2023/07/07 11:30:23;;;;;;;3.92;2.78;;;;;;;;;;5071531;28;20189;-69
2023/07/07 11:33:19;;;;;;;4.03;2.20;;;;;;;;;;5071094;28;20205;-68
2023/07/07 11:35:57;;;;;;;3.60;2.45;;;;;;;;;;5068501;28;20266;-68
2023/07/07 11:38:51;;;;;;;4.90;2.33;;;;;;;;;;5068640;28;20200;-69
2023/07/07 11:41:33;;;;;;;4.47;2.30;;;;;;;;;;5068187;28;20281;-68
2023/07/07 11:44:08;;;;;;;3.22;2.17;;;;;;;;;;5069070;28;20185;-67
2023/07/07 11:47:11;;;;;;;3.85;2.40;;;;;;;;;;5087369;28;20682;-68
2023/07/07 11:49:45;;;;;;;2.83;2.25;;;;;;;;;;5077818;28;20632;-69
2023/07/07 11:52:46;;;;;;;5.00;2.67;;;;;;;;;;5071184;28;20597;-69
2023/07/07 11:55:38;;;;;;;5.78;2.50;;;;;;;;;;5070424;28;20240;-69
2023/07/07 11:58:32;;;;;;;3.92;2.42;;;;;;;;;;5077778;28;20388;-67
2023/07/07 12:01:13;;;;;;;3.80;2.38;;;;;;;;;;5073357;28;20595;-68
2023/07/07 12:03:50;;;;;;;3.30;2.17;;;;;;;;;;5087061;28;20716;-68
2023/07/07 12:06:32;;;;;;;5.13;2.55;;;;;;;;;;5086072;28;20203;-69
2023/07/07 12:09:06;;;;;;;6.78;2.65;;;;;;;;;;5077208;28;20379;-69
2023/07/07 12:11:41;;;;;;;3.22;2.47;;;;;;;;;;5086599;28;20378;-67
2023/07/07 12:14:18;;;;;;;4.45;2.35;;;;;;;;;;5082489;28;20203;-68
2023/07/07 12:16:46;;;;;;;4.90;2.60;;;;;;;;;;5073000;28;20220;-69
2023/07/07 12:19:34;;;;;;;4.18;2.50;;;;;;;;;;5081966;28;20548;-68
2023/07/07 12:22:04;;;;;;;3.58;2.30;;;;;;;;;;5080053;28;20199;-69
2023/07/07 12:24:49;;;;;;;5.00;2.40;;;;;;;;;;5076550;28;20196;-69
2023/07/07 12:27:36;;;;;;;4.68;1.90;;;;;;;;;;5081545;28;20188;-68
2023/07/07 12:30:04;;;;;;;5.40;2.55;;;;;;;;;;5078813;28;20184;-67
2023/07/07 12:32:29;;;;;;;4.25;2.38;;;;;;;;;;5070474;28;20270;-67
2023/07/07 12:35:06;;;;;;;5.15;2.50;;;;;;;;;;5080190;28;20292;-68
2023/07/07 12:37:34;;;;;;;3.67;2.35;;;;;;;;;;5076914;28;20196;-68
2023/07/07 12:40:22;;;;;;;6.72;2.55;;;;;;;;;;5069712;28;20193;-68
2023/07/07 12:43:16;;;;;;;3.90;2.17;;;;;;;;;;4540090;28;10001854;-68
2023/07/07 12:45:45;;;;;;;5.05;2.40;;;;;;;;;;5072308;28;20288;-68
2023/07/07 12:48:19;;;;;;;3.10;2.40;;;;;;;;;;5076428;28;20675;-69
2023/07/07 12:50:45;;;;;;;3.05;2.25;;;;;;;;;;5083563;28;20211;-68
2023/07/07 12:53:20;;;;;;;4.47;2.35;;;;;;;;;;5080240;28;20237;-68
2023/07/07 12:56:06;;;;;;;6.30;2.70;;;;;;;;;;5076409;28;20661;-69
2023/07/07 12:58:37;;;;;;;12.60;2.50;;;;;;;;;;5076952;28;20195;-68
2023/07/07 13:01:14;;;;;;;3.03;2.10;;;;;;;;;;5080120;28;20201;-68
2023/07/07 13:04:00;;;;;;;5.85;1.90;;;;;;;;;;5064292;28;20192;-69
2023/07/07 13:06:32;;;;;;;2.90;2.40;;;;;;;;;;5081103;28;20188;-69
2023/07/07 13:09:16;;;;;;;4.82;2.65;;;;;;;;;;5070771;28;20209;-68
2023/07/07 13:11:59;;;;;;;3.30;2.17;;;;;;;;;;5083504;28;20672;-69
2023/07/07 13:14:40;;;;;;;3.70;2.50;;;;;;;;;;5073990;28;20211;-68
2023/07/07 13:17:17;;;;;;;4.35;2.38;;;;;;;;;;5070531;28;20521;-69
2023/07/07 13:19:49;;;;;;;3.45;2.30;;;;;;;;;;5082989;28;20262;-67
2023/07/07 13:22:23;;;;;;;3.25;2.30;;;;;;;;;;5069327;28;20307;-67
2023/07/07 13:24:48;;;;;;;3.60;2.33;;;;;;;;;;5084717;28;20188;-68
2023/07/07 13:27:17;;;;;;;4.50;2.55;;;;;;;;;;5084749;28;20659;-69
2023/07/07 13:29:43;;;;;;;3.60;1.98;;;;;;;;;;5085238;28;20222;-67
2023/07/07 13:32:29;;;;;;;2.92;2.58;;;;;;;;;;5087931;28;20274;-67
2023/07/07 13:34:59;;;;;;;3.88;2.50;;;;;;;;;;5083410;28;20215;-69
2023/07/07 13:37:26;;;;;;;2.53;2.15;;;;;;;;;;5083039;28;20242;-68
2023/07/07 13:39:51;;;;;;;3.38;2.17;;;;;;;;;;5073878;28;20710;-68
2023/07/07 13:42:27;;;;;;;4.32;2.40;;;;;;;;;;5081413;28;20270;-67
2023/07/07 13:44:58;;;;;;;3.70;2.40;;;;;;;;;;5083531;28;20665;-66
2023/07/07 13:47:24;;;;;;;3.22;2.50;;;;;;;;;;5082565;28;20192;-69
2023/07/07 13:49:52;;;;;;;4.43;2.42;;;;;;;;;;5079560;28;20294;-69
2023/07/07 13:52:22;;;;;;;5.05;2.40;;;;;;;;;;5075823;28;20239;-69
2023/07/07 13:54:48;;;;;;;7.43;2.90;;;;;;;;;;5079075;28;20580;-69
2023/07/07 13:57:22;;;;;;;6.88;2.53;;;;;;;;;;5077508;28;20196;-69
2023/07/07 13:59:49;;;;;;;6.05;2.38;;;;;;;;;;5070210;28;20193;-69
2023/07/07 14:02:15;;;;;;;4.75;2.30;;;;;;;;;;5075967;28;20216;-69
2023/07/07 14:04:46;;;;;;;3.30;2.35;;;;;;;;;;5075569;28;20683;-69
2023/07/07 14:07:19;;;;;;;2.60;2.20;;;;;;;;;;5073404;28;20242;-68
2023/07/07 14:09:47;;;;;;;3.03;2.13;;;;;;;;;;5081538;28;20679;-68
2023/07/07 14:12:22;;;;;;;4.03;2.20;;;;;;;;;;5080917;28;20211;-67
2023/07/07 14:14:49;;;;;;;3.88;2.20;;;;;;;;;;5076608;28;20215;-68
2023/07/07 14:17:37;;;;;;;4.63;2.75;;;;;;;;;;5078225;28;20271;-68
2023/07/07 14:20:21;;;;;;;6.03;2.70;;;;;;;;;;5077628;28;20230;-69
2023/07/07 14:22:46;;;;;;;7.15;2.20;;;;;;;;;;5079075;28;20192;-68
2023/07/07 14:25:16;;;;;;;3.05;2.22;;;;;;;;;;5077100;28;20197;-68
2023/07/07 14:27:44;;;;;;;3.00;2.22;;;;;;;;;;5077633;28;20221;-68
2023/07/07 14:30:19;;;;;;;2.83;2.30;;;;;;;;;;5079023;28;20192;-69
2023/07/07 14:32:46;;;;;;;3.50;2.50;;;;;;;;;;5083108;28;20693;-68
2023/07/07 14:35:18;;;;;;;6.82;2.17;;;;;;;;;;5085180;28;20336;-68
2023/07/07 14:37:50;;;;;;;4.70;2.55;;;;;;;;;;5087043;28;20253;-68
2023/07/07 14:40:27;;;;;;;3.15;2.20;;;;;;;;;;5087723;28;20195;-68
2023/07/07 14:42:53;;;;;;;4.10;2.30;;;;;;;;;;5079419;28;20259;-68
2023/07/07 14:45:40;;;;;;;4.25;2.42;;;;;;;;;;5080599;28;21544;-69
2023/07/07 14:48:24;;;;;;;3.15;2.50;;;;;;;;;;5085133;28;20185;-68
2023/07/07 14:50:51;;;;;;;3.42;2.33;;;;;;;;;;5072036;28;20204;-69
2023/07/07 14:53:19;;;;;;;5.97;2.53;;;;;;;;;;4717248;28;10000456;-69